^^
Lisbon, NH - Weather Station Historical Data
Daily Summary for April 5, 2021 Units:  English    Metric   Both
Daily Weekly Monthly Yearly
  High: Low: Average:
Temperature: 51.7 °F 28.3 °F 40.9 °F
Dew Point: 32.3 °F 16.2 °F 25.1 °F
Humidity: 86% 28.1% 55%
Wind Speed: 9.3mph 0mph 2.3mph
Wind Gust: 20mph - -
Wind- - NE
Pressure: 29.91 in 29.82 in -
Precipitation: 0.00 in    
 
 
Tabular Data for April 5, 2021
Time Temperature Dew Point Pressure Wind Wind Speed Wind Gust Humidity Rainfall Rate (Hourly) solar
00:04 29.7 °F 24.6 °F 29.90 in Calm     81% 0.00 in 0 W/m2
00:09 29.7 °F 24.6 °F 29.90 in Calm     81% 0.00 in 0 W/m2
00:14 29.7 °F 24.9 °F 29.90 in Calm     82% 0.00 in 0 W/m2
00:19 29.5 °F 24.9 °F 29.90 in Calm     82.6% 0.00 in 0 W/m2
00:24 29.5 °F 25 °F 29.90 in Calm     83% 0.00 in 0 W/m2
00:29 29.4 °F 24.9 °F 29.90 in Calm     83% 0.00 in 0 W/m2
00:34 29.4 °F 25 °F 29.90 in Calm     83.2% 0.00 in 0 W/m2
00:39 29.4 °F 25.2 °F 29.90 in Calm     84% 0.00 in 0 W/m2
00:44 29.3 °F 25 °F 29.90 in Calm     84% 0.00 in 0 W/m2
00:49 29.2 °F 25 °F 29.90 in Calm     84% 0.00 in 0 W/m2
00:54 29.2 °F 25.2 °F 29.90 in Calm     84.7% 0.00 in 0 W/m2
00:59 29.2 °F 25.3 °F 29.90 in Calm     85% 0.00 in 0 W/m2
01:04 29.2 °F 25.3 °F 29.89 in Calm     85% 0.00 in 0 W/m2
01:09 29.1 °F 25.2 °F 29.89 in Calm     85.2% 0.00 in 0 W/m2
01:14 29.1 °F 25.4 °F 29.89 in Calm     86% 0.00 in 0 W/m2
01:19 29.1 °F 25.4 °F 29.89 in Calm     86% 0.00 in 0 W/m2
01:24 29.1 °F 25.4 °F 29.89 in Calm     86% 0.00 in 0 W/m2
01:29 29.1 °F 25.4 °F 29.89 in Calm     86% 0.00 in 0 W/m2
01:34 29.3 °F 25.7 °F 29.89 in Calm     86% 0.00 in 0 W/m2
01:39 30.1 °F 26.1 °F 29.89 in Calm     84.9% 0.00 in 0 W/m2
01:44 30.8 °F 26.4 °F 29.89 in Calm     83.3% 0.00 in 0 W/m2
01:49 32 °F 26.4 °F 29.88 in North 1.4 mph 10 mph 79.5% 0.00 in 0 W/m2
01:54 33 °F 26.7 °F 29.88 in SE 0.4 mph 10 mph 77.3% 0.00 in 0 W/m2
01:59 33.8 °F 26.4 °F 29.88 in Calm     74.1% 0.00 in 0 W/m2
02:04 34.8 °F 26 °F 29.88 in NE 1.1 mph 7 mph 70% 0.00 in 0 W/m2
02:09 36.1 °F 25.2 °F 29.88 in NNE 2.2 mph 8 mph 64.2% 0.00 in 0 W/m2
02:14 37.3 °F 25.2 °F 29.88 in ENE 4.3 mph 12 mph 61.5% 0.00 in 0 W/m2
02:19 37.7 °F 25.5 °F 29.88 in ENE 2 mph 13 mph 61% 0.00 in 0 W/m2
02:24 37.8 °F 24.6 °F 29.88 in NE 2.4 mph 12 mph 58.6% 0.00 in 0 W/m2
02:29 38 °F 23.8 °F 29.88 in NE 6 mph 14 mph 56.1% 0.00 in 0 W/m2
02:34 38.4 °F 23.5 °F 29.88 in NE 3.1 mph 10 mph 54.8% 0.00 in 0 W/m2
02:39 38.6 °F 22.8 °F 29.88 in NE 2 mph 14 mph 52.7% 0.00 in 0 W/m2
02:44 38.8 °F 22.6 °F 29.88 in ENE 5 mph 15 mph 51.8% 0.00 in 0 W/m2
02:49 39 °F 22.8 °F 29.88 in East 2.4 mph 13 mph 51.8% 0.00 in 0 W/m2
02:54 38.9 °F 22.5 °F 29.88 in NNE 1.9 mph 7 mph 51.4% 0.00 in 0 W/m2
02:59 38.8 °F 21.9 °F 29.88 in NE 1.1 mph 7 mph 50.3% 0.00 in 0 W/m2
03:04 38.7 °F 22.1 °F 29.88 in ENE 0.2 mph 7 mph 50.8% 0.00 in 0 W/m2
03:09 38.5 °F 22 °F 29.88 in NNE 1.2 mph 4 mph 51% 0.00 in 0 W/m2
03:14 38.4 °F 21.6 °F 29.88 in NE 2.9 mph 7 mph 50.5% 0.00 in 0 W/m2
03:19 38.3 °F 21.3 °F 29.88 in NE 4.6 mph 10 mph 50% 0.00 in 0 W/m2
03:24 38.3 °F 21.3 °F 29.88 in Calm   10 mph 50% 0.00 in 0 W/m2
03:29 38.2 °F 21.4 °F 29.88 in ENE 1.4 mph 8 mph 50.3% 0.00 in 0 W/m2
03:34 37.9 °F 21.7 °F 29.88 in ENE 1 mph 5 mph 51.7% 0.00 in 0 W/m2
03:39 37.7 °F 21.5 °F 29.88 in ENE 0.5 mph 5 mph 51.5% 0.00 in 0 W/m2
03:44 37.5 °F 21.7 °F 29.89 in ENE 0.2 mph 2 mph 52.5% 0.00 in 0 W/m2
03:49 37.1 °F 21.6 °F 29.89 in Calm     53% 0.00 in 0 W/m2
03:54 36.9 °F 21.5 °F 29.89 in Calm     53.4% 0.00 in 0 W/m2
03:59 36.6 °F 21.6 °F 29.89 in Calm     54% 0.00 in 0 W/m2
04:04 36.4 °F 21.5 °F 29.88 in Calm     54.3% 0.00 in 0 W/m2
04:09 36.2 °F 21.6 °F 29.88 in Calm     55% 0.00 in 0 W/m2
04:14 36 °F 22.3 °F 29.89 in Calm     57.2% 0.00 in 0 W/m2
04:19 35.4 °F 22.3 °F 29.89 in Calm     58.6% 0.00 in 0 W/m2
04:24 35.4 °F 21.3 °F 29.89 in Calm     56.1% 0.00 in 0 W/m2
04:29 35.5 °F 21.1 °F 29.89 in Calm     55.5% 0.00 in 0 W/m2
04:34 35.5 °F 21.2 °F 29.88 in Calm     55.5% 0.00 in 0 W/m2
04:39 35.4 °F 21.9 °F 29.88 in Calm     57.6% 0.00 in 0 W/m2
04:44 34.6 °F 22.6 °F 29.89 in Calm     61.2% 0.00 in 0 W/m2
04:49 33.8 °F 22.4 °F 29.89 in Calm     62.7% 0.00 in 0 W/m2
04:54 33.1 °F 22.3 °F 29.89 in Calm     64.1% 0.00 in 0 W/m2
04:59 32.5 °F 22.1 °F 29.89 in Calm     65.1% 0.00 in 0 W/m2
05:04 31.9 °F 22.1 °F 29.89 in Calm     66.7% 0.00 in 0 W/m2
05:09 31.4 °F 22.1 °F 29.89 in Calm     68% 0.00 in 0 W/m2
05:14 31.1 °F 22.1 °F 29.89 in Calm     69% 0.00 in 0 W/m2
05:19 30.7 °F 22 °F 29.89 in Calm     69.9% 0.00 in 0 W/m2
05:24 30.4 °F 21.8 °F 29.89 in Calm     70.1% 0.00 in 0 W/m2
05:29 30 °F 21.8 °F 29.89 in Calm     71% 0.00 in 0 W/m2
05:34 29.7 °F 21.7 °F 29.89 in Calm     71.5% 0.00 in 0 W/m2
05:39 29.5 °F 21.6 °F 29.89 in Calm     72% 0.00 in 0 W/m2
05:44 29.2 °F 21.6 °F 29.89 in Calm     72.9% 0.00 in 0 W/m2
05:49 29 °F 21.4 °F 29.89 in Calm     73% 0.00 in 0 W/m2
05:54 28.8 °F 21.5 °F 29.89 in Calm     73.9% 0.00 in 0 W/m2
05:59 28.6 °F 21.4 °F 29.89 in Calm     74% 0.00 in 0 W/m2
06:04 28.5 °F 21.5 °F 29.89 in Calm     74.7% 0.00 in 0 W/m2
06:09 28.4 °F 21.5 °F 29.89 in Calm     75% 0.00 in 0 W/m2
06:14 28.3 °F 21.6 °F 29.90 in Calm     75.6% 0.00 in 0 W/m2
06:19 28.3 °F 21.7 °F 29.90 in Calm     76% 0.00 in 5 W/m2
06:24 28.3 °F 21.7 °F 29.90 in Calm     76% 0.00 in 5 W/m2
06:29 28.3 °F 21.8 °F 29.90 in Calm     76.4% 0.00 in 9 W/m2
06:34 28.3 °F 22 °F 29.90 in Calm     77% 0.00 in 12 W/m2
06:39 28.5 °F 22.2 °F 29.90 in Calm     77% 0.00 in 18 W/m2
06:44 28.5 °F 22.4 °F 29.90 in Calm     77.7% 0.00 in 21 W/m2
06:49 28.5 °F 22.6 °F 29.90 in Calm     78% 0.00 in 25 W/m2
06:54 28.7 °F 22.7 °F 29.90 in Calm     78% 0.00 in 28 W/m2
06:59 28.9 °F 23.2 °F 29.90 in Calm     79% 0.00 in 32 W/m2
07:04 29.1 °F 23.5 °F 29.90 in Calm     79.6% 0.00 in 39 W/m2
07:09 29.2 °F 23.8 °F 29.90 in Calm     80% 0.00 in 46 W/m2
07:14 29.5 °F 23.8 °F 29.91 in Calm     78.9% 0.00 in 49 W/m2
07:19 29.9 °F 23.9 °F 29.91 in Calm     78% 0.00 in 55 W/m2
07:24 30.3 °F 24.1 °F 29.91 in Calm     77.3% 0.00 in 63 W/m2
07:29 30.8 °F 24.3 °F 29.91 in Calm     76.4% 0.00 in 69 W/m2
07:34 31.4 °F 24.3 °F 29.91 in Calm     74.8% 0.00 in 76 W/m2
07:39 31.9 °F 24.3 °F 29.91 in Calm     73.1% 0.00 in 83 W/m2
07:44 32.4 °F 24.8 °F 29.91 in Calm     73% 0.00 in 95 W/m2
07:49 32.9 °F 24.8 °F 29.91 in Calm     71.8% 0.00 in 104 W/m2
07:54 33.6 °F 24.9 °F 29.91 in ENE 0.1 mph 3 mph 70.1% 0.00 in 107 W/m2
07:59 34.6 °F 25.2 °F 29.91 in Calm   3 mph 68.1% 0.00 in 116 W/m2
08:04 35.3 °F 25.2 °F 29.90 in ENE 0.2 mph 3 mph 66.5% 0.00 in 123 W/m2
08:09 35.9 °F 25.1 °F 29.90 in ENE 0.2 mph 2 mph 64.6% 0.00 in 132 W/m2
08:14 36.3 °F 25.3 °F 29.90 in Calm   2 mph 64% 0.00 in 132 W/m2
08:19 36.7 °F 25.2 °F 29.90 in ENE 1.4 mph 6 mph 62.6% 0.00 in 155 W/m2
08:24 37.4 °F 24.5 °F 29.90 in ENE 1.9 mph 6 mph 59.3% 0.00 in 167 W/m2
08:29 37.8 °F 24.3 °F 29.90 in ENE 3 mph 8 mph 57.8% 0.00 in 185 W/m2
08:34 38.3 °F 24.4 °F 29.90 in ENE 2.8 mph 8 mph 57% 0.00 in 201 W/m2
08:39 38.7 °F 24.3 °F 29.90 in ENE 3.2 mph 7 mph 55.9% 0.00 in 215 W/m2
08:44 39 °F 23.9 °F 29.90 in NE 2.8 mph 8 mph 54.2% 0.00 in 234 W/m2
08:49 39.3 °F 23.8 °F 29.90 in NE 2.8 mph 8 mph 53.3% 0.00 in 248 W/m2
08:54 39.7 °F 23.6 °F 29.90 in NE 5 mph 10 mph 52.3% 0.00 in 269 W/m2
08:59 39.9 °F 23.7 °F 29.90 in NE 5.4 mph 13 mph 52% 0.00 in 290 W/m2
09:04 40.1 °F 23.3 °F 29.90 in NE 4 mph 12 mph 50.7% 0.00 in 338 W/m2
09:09 40.4 °F 23.4 °F 29.90 in ENE 5.5 mph 12 mph 50.5% 0.00 in 315 W/m2
09:14 40.4 °F 23 °F 29.90 in NE 6.3 mph 17 mph 49.5% 0.00 in 294 W/m2
09:19 40.1 °F 22.9 °F 29.90 in NNE 3.5 mph 17 mph 49.8% 0.00 in 267 W/m2
09:24 40.2 °F 22.7 °F 29.90 in NNE 2.9 mph 9 mph 49.4% 0.00 in 296 W/m2
09:29 40.4 °F 22.7 °F 29.90 in NNE 2.7 mph 7 mph 48.9% 0.00 in 368 W/m2
09:34 40.8 °F 23.3 °F 29.90 in ENE 4.3 mph 10 mph 49.3% 0.00 in 584 W/m2
09:39 41.5 °F 23.2 °F 29.90 in NE 3 mph 16 mph 47.8% 0.00 in 577 W/m2
09:44 42.1 °F 23.4 °F 29.90 in ENE 4.1 mph 16 mph 47.1% 0.00 in 554 W/m2
09:49 42.4 °F 23.1 °F 29.90 in NE 4.1 mph 13 mph 46% 0.00 in 554 W/m2
09:54 42.3 °F 22.9 °F 29.90 in NE 3.8 mph 11 mph 45.7% 0.00 in 428 W/m2
09:59 42 °F 22.9 °F 29.90 in ENE 7.6 mph 13 mph 46.2% 0.00 in 398 W/m2
10:04 41.6 °F 23.2 °F 29.90 in NE 3.8 mph 11 mph 47.7% 0.00 in 473 W/m2
10:09 41.8 °F 23 °F 29.90 in ENE 7.1 mph 16 mph 46.9% 0.00 in 538 W/m2
10:14 42.4 °F 23.4 °F 29.90 in ENE 4.6 mph 13 mph 46.6% 0.00 in 639 W/m2
10:19 43 °F 23.6 °F 29.90 in NE 5.1 mph 13 mph 45.8% 0.00 in 582 W/m2
10:24 43.1 °F 23.3 °F 29.90 in NE 4.6 mph 14 mph 45.1% 0.00 in 435 W/m2
10:29 43 °F 23.4 °F 29.90 in ENE 4 mph 11 mph 45.5% 0.00 in 401 W/m2
10:34 43 °F 23.7 °F 29.89 in ENE 4.4 mph 17 mph 46.2% 0.00 in 484 W/m2
10:39 43.2 °F 23.6 °F 29.89 in ENE 9.3 mph 17 mph 45.6% 0.00 in 468 W/m2
10:44 43.4 °F 23.8 °F 29.89 in ENE 7.4 mph 16 mph 45.7% 0.00 in 391 W/m2
10:49 43.1 °F 23.7 °F 29.89 in ENE 6.7 mph 19 mph 46% 0.00 in 482 W/m2
10:54 42.9 °F 23.4 °F 29.89 in ENE 6.1 mph 19 mph 45.7% 0.00 in 482 W/m2
10:59 43.1 °F 23.8 °F 29.89 in ENE 5.6 mph 16 mph 46.1% 0.00 in 475 W/m2
11:04 43.6 °F 24.3 °F 29.89 in NE 4.7 mph 16 mph 46.2% 0.00 in 676 W/m2
11:09 44.2 °F 24.1 °F 29.89 in NE 3.8 mph 11 mph 44.8% 0.00 in 591 W/m2
11:14 44.2 °F 23.4 °F 29.89 in NE 5.5 mph 16 mph 43.5% 0.00 in 465 W/m2
11:19 44.2 °F 23.9 °F 29.89 in NE 3.4 mph 12 mph 44.3% 0.00 in 762 W/m2
11:24 45.1 °F 23.9 °F 29.89 in NE 4.8 mph 16 mph 42.8% 0.00 in 781 W/m2
11:29 45.5 °F 23.7 °F 29.89 in NNE 2.2 mph 16 mph 41.9% 0.00 in 746 W/m2
11:34 46.2 °F 24.3 °F 29.88 in NNE 1.9 mph 7 mph 41.9% 0.00 in 649 W/m2
11:39 46.5 °F 24.1 °F 29.88 in NE 2.5 mph 11 mph 41% 0.00 in 802 W/m2
11:44 46.8 °F 24.3 °F 29.88 in ENE 4 mph 11 mph 41% 0.00 in 802 W/m2
11:49 46.9 °F 24.3 °F 29.87 in NE 4.8 mph 16 mph 40.7% 0.00 in 830 W/m2
11:54 47.8 °F 25.5 °F 29.87 in ENE 7.1 mph 16 mph 41.4% 0.00 in 804 W/m2
11:59 48.6 °F 25.5 °F 29.87 in ENE 6.9 mph 13 mph 40.2% 0.00 in 859 W/m2
12:04 49 °F 25.7 °F 29.86 in ENE 7.3 mph 17 mph 40% 0.00 in 892 W/m2
12:09 49 °F 26.2 °F 29.86 in ENE 8.4 mph 18 mph 40.8% 0.00 in 982 W/m2
12:14 49.4 °F 26.2 °F 29.86 in ENE 6.2 mph 13 mph 40.1% 0.00 in 978 W/m2
12:19 49.6 °F 26.6 °F 29.85 in ENE 7.9 mph 19 mph 40.5% 0.00 in 945 W/m2
12:24 49.6 °F 26.7 °F 29.85 in ENE 6.3 mph 16 mph 40.7% 0.00 in 959 W/m2
12:29 49.8 °F 26.6 °F 29.85 in ENE 7.3 mph 14 mph 40.2% 0.00 in 959 W/m2
12:34 50.1 °F 27.1 °F 29.85 in ENE 5.8 mph 14 mph 40.7% 0.00 in 975 W/m2
12:39 50.7 °F 27.1 °F 29.85 in ENE 5.3 mph 10 mph 39.8% 0.00 in 962 W/m2
12:44 50.8 °F 27 °F 29.85 in NE 2.9 mph 9 mph 39.5% 0.00 in 862 W/m2
12:49 50.9 °F 27.4 °F 29.84 in NE 4 mph 11 mph 39.9% 0.00 in 862 W/m2
12:54 51 °F 27.1 °F 29.84 in NNE 4.8 mph 12 mph 39.4% 0.00 in 862 W/m2
12:59 50.6 °F 27.6 °F 29.84 in NE 2.8 mph 12 mph 40.6% 0.00 in 479 W/m2
13:04 51.1 °F 28 °F 29.84 in NE 3.2 mph 12 mph 40.6% 0.00 in 479 W/m2
13:09 51.4 °F 28.2 °F 29.84 in ENE 6.1 mph 13 mph 40.5% 0.00 in 579 W/m2
13:14 51 °F 28.1 °F 29.84 in ENE 5.6 mph 17 mph 40.8% 0.00 in 503 W/m2
13:19 50.7 °F 28.1 °F 29.83 in ENE 4.2 mph 17 mph 41.4% 0.00 in 491 W/m2
13:24 50.4 °F 27.9 °F 29.83 in NE 6.8 mph 17 mph 41.5% 0.00 in 406 W/m2
13:29 49.6 °F 27.8 °F 29.83 in ENE 5.8 mph 17 mph 42.6% 0.00 in 371 W/m2
13:34 49.5 °F 28.1 °F 29.83 in NE 5 mph 12 mph 43.3% 0.00 in 385 W/m2
13:39 49.5 °F 28.4 °F 29.83 in ENE 7.2 mph 17 mph 43.7% 0.00 in 380 W/m2
13:44 49.5 °F 28.4 °F 29.83 in ENE 6.5 mph 16 mph 43.9% 0.00 in 412 W/m2
13:49 49.5 °F 27.8 °F 29.83 in ENE 5.3 mph 12 mph 42.8% 0.00 in 456 W/m2
13:54 49.8 °F 27.9 °F 29.83 in ENE 5.6 mph 14 mph 42.5% 0.00 in 468 W/m2
13:59 50.3 °F 28.3 °F 29.83 in ENE 4.6 mph 11 mph 42.4% 0.00 in 681 W/m2
14:04 51.2 °F 28 °F 29.82 in NE 3 mph 11 mph 40.3% 0.00 in 681 W/m2
14:09 51.7 °F 27.6 °F 29.82 in NNE 3.3 mph 11 mph 39% 0.00 in 681 W/m2
14:14 51.6 °F 27.9 °F 29.82 in ENE 5.9 mph 14 mph 39.8% 0.00 in 436 W/m2
14:19 51.1 °F 27.8 °F 29.82 in ENE 9.1 mph 20 mph 40.2% 0.00 in 424 W/m2
14:24 50.8 °F 27.4 °F 29.82 in ENE 6.2 mph 19 mph 40.1% 0.00 in 438 W/m2
14:29 50.8 °F 27.6 °F 29.82 in ENE 4.6 mph 12 mph 40.4% 0.00 in 371 W/m2
14:34 50.5 °F 27.6 °F 29.82 in ENE 6 mph 16 mph 40.8% 0.00 in 278 W/m2
14:39 50.1 °F 27.6 °F 29.82 in ENE 5.5 mph 16 mph 41.4% 0.00 in 366 W/m2
14:44 50.2 °F 27.7 °F 29.82 in NE 4.1 mph 12 mph 41.4% 0.00 in 403 W/m2
14:49 50.2 °F 27.4 °F 29.82 in NE 5.5 mph 12 mph 41% 0.00 in 403 W/m2
14:54 50.2 °F 27.4 °F 29.82 in NE 3.8 mph 7 mph 41% 0.00 in 259 W/m2
14:59 50 °F 27.3 °F 29.82 in ENE 5.6 mph 14 mph 41.1% 0.00 in 333 W/m2
15:04 50.2 °F 27.6 °F 29.82 in ENE 4.9 mph 12 mph 41.3% 0.00 in 336 W/m2
15:09 50.5 °F 27.1 °F 29.82 in NE 5.3 mph 14 mph 40.1% 0.00 in 348 W/m2
15:14 50.5 °F 27.2 °F 29.82 in NNE 3.9 mph 14 mph 40.1% 0.00 in 320 W/m2
15:19 50.6 °F 27.5 °F 29.82 in ENE 4.4 mph 11 mph 40.4% 0.00 in 297 W/m2
15:24 50.6 °F 27.6 °F 29.82 in NE 4.1 mph 11 mph 40.7% 0.00 in 234 W/m2
15:29 50.3 °F 27.3 °F 29.82 in NNE 2.6 mph 11 mph 40.6% 0.00 in 179 W/m2
15:34 50 °F 27.2 °F 29.82 in ENE 3.3 mph 9 mph 40.9% 0.00 in 155 W/m2
15:39 49.9 °F 27.2 °F 29.82 in ENE 4.6 mph 16 mph 41.1% 0.00 in 181 W/m2
15:44 49.8 °F 27 °F 29.82 in NE 2.7 mph 8 mph 40.9% 0.00 in 183 W/m2
15:49 49.8 °F 27.2 °F 29.82 in NE 3.8 mph 8 mph 41.1% 0.00 in 176 W/m2
15:54 49.9 °F 27.2 °F 29.82 in NE 3.3 mph 8 mph 41.1% 0.00 in 172 W/m2
15:59 49.9 °F 27.4 °F 29.82 in ENE 2.5 mph 8 mph 41.4% 0.00 in 158 W/m2
16:04 50 °F 27.4 °F 29.82 in ENE 4.1 mph 9 mph 41.4% 0.00 in 137 W/m2
16:09 49.8 °F 26.8 °F 29.82 in ENE 2.7 mph 8 mph 40.4% 0.00 in 132 W/m2
16:14 49.7 °F 27 °F 29.82 in ENE 4.3 mph 8 mph 41% 0.00 in 113 W/m2
16:19 49.5 °F 26.5 °F 29.82 in NE 3.8 mph 13 mph 40.4% 0.00 in 99 W/m2
16:24 49.4 °F 26.7 °F 29.82 in NNE 3.6 mph 12 mph 41% 0.00 in 109 W/m2
16:29 49.2 °F 26.2 °F 29.82 in NNE 2.6 mph 12 mph 40.3% 0.00 in 99 W/m2
16:34 49.2 °F 26.5 °F 29.82 in NE 2.5 mph 7 mph 41% 0.00 in 102 W/m2
16:39 49.2 °F 26.3 °F 29.82 in ENE 3.1 mph 8 mph 40.7% 0.00 in 106 W/m2
16:44 49 °F 25.6 °F 29.83 in NE 4.5 mph 9 mph 39.8% 0.00 in 127 W/m2
16:49 49.1 °F 25 °F 29.83 in NNE 3.5 mph 9 mph 38.6% 0.00 in 141 W/m2
16:54 49.3 °F 25.3 °F 29.83 in ENE 2.1 mph 7 mph 38.9% 0.00 in 157 W/m2
16:59 49.5 °F 25.3 °F 29.83 in ENE 4.9 mph 10 mph 38.5% 0.00 in 148 W/m2
17:04 49.6 °F 23.6 °F 29.82 in NNE 2.5 mph 10 mph 35.8% 0.00 in 158 W/m2
17:09 49.8 °F 24 °F 29.82 in ENE 6.2 mph 20 mph 36.1% 0.00 in 206 W/m2
17:14 50.1 °F 22.7 °F 29.83 in NNE 3.3 mph 20 mph 33.9% 0.00 in 223 W/m2
17:19 50.3 °F 21.5 °F 29.83 in North 3.1 mph 8 mph 31.9% 0.00 in 164 W/m2
17:22 50.4 °F 21.5 °F 29.83 in NE 1.6 mph 5 mph 31.8% 0.00 in 153 W/m2
19:49 47.7 °F 16.3 °F 29.86 in NE 2.1 mph 8 mph 28.2% 0.00 in 0 W/m2
19:54 47.6 °F 16.9 °F 29.86 in ENE 0.8 mph 8 mph 28.9% 0.00 in 0 W/m2
19:59 47.6 °F 16.2 °F 29.86 in North 0.7 mph 5 mph 28.1% 0.00 in 0 W/m2
20:04 47.6 °F 16.2 °F 29.86 in North 0.7 mph 2 mph 28.1% 0.00 in 0 W/m2
20:09 47.4 °F 16.6 °F 29.86 in ENE 1 mph 7 mph 28.8% 0.00 in 0 W/m2
20:14 47.2 °F 22.5 °F 29.86 in ENE 2.5 mph 7 mph 37.7% 0.00 in 0 W/m2
20:19 46.6 °F 25.8 °F 29.86 in NE 0.5 mph 6 mph 44% 0.00 in 0 W/m2
20:24 46.1 °F 26.4 °F 29.86 in NE 0.9 mph 4 mph 45.9% 0.00 in 0 W/m2
20:29 45.6 °F 26.9 °F 29.86 in NE 0.6 mph 3 mph 47.6% 0.00 in 0 W/m2
20:34 45.3 °F 26.9 °F 29.86 in Calm     48.3% 0.00 in 0 W/m2
20:39 45 °F 27.1 °F 29.86 in NE 0.3 mph 3 mph 49.1% 0.00 in 0 W/m2
20:44 44.9 °F 27.1 °F 29.87 in NE 0.1 mph 2 mph 49.4% 0.00 in 0 W/m2
20:49 44.7 °F 27.2 °F 29.87 in Calm     50% 0.00 in 0 W/m2
20:54 44.6 °F 27.1 °F 29.87 in Calm     50% 0.00 in 0 W/m2
20:59 44.6 °F 27.1 °F 29.87 in Calm     50% 0.00 in 0 W/m2
21:04 44.5 °F 27.3 °F 29.87 in NE 0.5 mph 6 mph 50.6% 0.00 in 0 W/m2
21:09 44.4 °F 27.4 °F 29.87 in NE 0.3 mph 6 mph 51% 0.00 in 0 W/m2
21:14 44.3 °F 27.7 °F 29.88 in Calm   2 mph 51.9% 0.00 in 0 W/m2
21:19 44.2 °F 27.9 °F 29.88 in Calm     52.4% 0.00 in 0 W/m2
21:24 44 °F 28.1 °F 29.88 in NE 0.7 mph 6 mph 53.2% 0.00 in 0 W/m2
21:29 43.8 °F 28.4 °F 29.88 in NE 0.8 mph 4 mph 54.4% 0.00 in 0 W/m2
21:34 43.6 °F 28.4 °F 29.88 in ENE 1.6 mph 5 mph 54.7% 0.00 in 0 W/m2
21:39 43.4 °F 28.4 °F 29.88 in NE 0.9 mph 7 mph 55.2% 0.00 in 0 W/m2
21:44 43.3 °F 28.6 °F 29.88 in NE 0.7 mph 7 mph 55.8% 0.00 in 0 W/m2
21:49 43.1 °F 28.7 °F 29.88 in ENE 0.3 mph 2 mph 56.5% 0.00 in 0 W/m2
21:54 43 °F 28.8 °F 29.88 in ENE 0.2 mph 2 mph 57% 0.00 in 0 W/m2
21:59 42.9 °F 28.6 °F 29.89 in NE 1.9 mph 6 mph 56.8% 0.00 in 0 W/m2
22:04 42.8 °F 28.6 °F 29.89 in NE 0.6 mph 6 mph 57.1% 0.00 in 0 W/m2
22:09 42.7 °F 28.5 °F 29.89 in Calm   6 mph 57% 0.00 in 0 W/m2
22:14 42.6 °F 28.6 °F 29.89 in NE 0.5 mph 5 mph 57.4% 0.00 in 0 W/m2
22:19 42.6 °F 28.3 °F 29.89 in NE 0.2 mph 2 mph 56.7% 0.00 in 0 W/m2
22:24 42.6 °F 28.4 °F 29.89 in NE 0.2 mph 2 mph 56.8% 0.00 in 0 W/m2
22:29 42.6 °F 28 °F 29.89 in Calm   2 mph 56% 0.00 in 0 W/m2
22:34 42.6 °F 28 °F 29.89 in NE 0.2 mph 2 mph 56% 0.00 in 0 W/m2
22:39 42.6 °F 28 °F 29.89 in Calm   2 mph 56% 0.00 in 0 W/m2
22:44 42.6 °F 28.5 °F 29.89 in NE 0.2 mph 2 mph 57.1% 0.00 in 0 W/m2
22:49 42.4 °F 28.2 °F 29.89 in NE 0.1 mph 2 mph 56.9% 0.00 in 0 W/m2
22:54 42.4 °F 27.8 °F 29.89 in NE 0.1 mph 2 mph 56% 0.00 in 0 W/m2
22:59 42.4 °F 28 °F 29.90 in NE 1.2 mph 7 mph 56.4% 0.00 in 0 W/m2
23:04 42.6 °F 28.1 °F 29.90 in NE 1.7 mph 7 mph 56.3% 0.00 in 0 W/m2
23:09 42.6 °F 28.6 °F 29.90 in NNE 2.5 mph 8 mph 57.2% 0.00 in 0 W/m2
23:14 42.7 °F 29.5 °F 29.90 in NE 4.2 mph 13 mph 59.4% 0.00 in 0 W/m2
23:19 42.7 °F 30.7 °F 29.89 in NE 4.6 mph 17 mph 62.3% 0.00 in 0 W/m2
23:24 42.7 °F 31.1 °F 29.89 in NE 4.5 mph 14 mph 63.2% 0.00 in 0 W/m2
23:29 42.6 °F 31.5 °F 29.89 in NE 4.5 mph 14 mph 64.4% 0.00 in 0 W/m2
23:34 42.6 °F 31.7 °F 29.89 in NE 2.6 mph 13 mph 65.1% 0.00 in 0 W/m2
23:39 42.4 °F 31.9 °F 29.89 in ENE 2.2 mph 11 mph 66% 0.00 in 0 W/m2
23:44 42.3 °F 32.1 °F 29.90 in ENE 2.4 mph 11 mph 66.9% 0.00 in 0 W/m2
23:49 42.3 °F 32.1 °F 29.90 in NE 2.3 mph 8 mph 67% 0.00 in 0 W/m2
23:54 42.1 °F 32.3 °F 29.90 in ENE 3.5 mph 9 mph 68% 0.00 in 0 W/m2
23:59 42.1 °F 32.3 °F 29.90 in ENE 1.8 mph 9 mph 68% 0.00 in 0 W/m2
Lisbon, New Hampshire, USA
Compliments of Weather Underground - 4 mb